sensor_id;sensor_type;location;lat;lon;timestamp;P1;durP1;ratioP1;P2;durP2;ratioP2
69244;SDS011;56357;52.304;4.870;2023-11-18T00:00:25;11.20;;;5.25;;
69244;SDS011;56357;52.304;4.870;2023-11-18T00:02:52;9.03;;;4.57;;
69244;SDS011;56357;52.304;4.870;2023-11-18T00:05:18;8.95;;;4.85;;
69244;SDS011;56357;52.304;4.870;2023-11-18T00:07:45;10.02;;;4.80;;
69244;SDS011;56357;52.304;4.870;2023-11-18T00:10:12;10.68;;;4.90;;
69244;SDS011;56357;52.304;4.870;2023-11-18T00:12:38;9.98;;;5.15;;
69244;SDS011;56357;52.304;4.870;2023-11-18T00:15:06;10.10;;;4.80;;
69244;SDS011;56357;52.304;4.870;2023-11-18T00:17:35;11.65;;;5.35;;
69244;SDS011;56357;52.304;4.870;2023-11-18T00:20:02;10.35;;;5.22;;
69244;SDS011;56357;52.304;4.870;2023-11-18T00:22:33;13.07;;;5.57;;
69244;SDS011;56357;52.304;4.870;2023-11-18T00:25:00;9.35;;;4.28;;
69244;SDS011;56357;52.304;4.870;2023-11-18T00:27:26;12.17;;;5.47;;
69244;SDS011;56357;52.304;4.870;2023-11-18T00:29:53;10.90;;;5.22;;
69244;SDS011;56357;52.304;4.870;2023-11-18T00:32:19;9.73;;;4.80;;
69244;SDS011;56357;52.304;4.870;2023-11-18T00:34:46;9.38;;;5.10;;
69244;SDS011;56357;52.304;4.870;2023-11-18T00:37:12;9.27;;;5.00;;
69244;SDS011;56357;52.304;4.870;2023-11-18T00:39:39;9.27;;;4.77;;
69244;SDS011;56357;52.304;4.870;2023-11-18T00:42:06;10.30;;;4.93;;
69244;SDS011;56357;52.304;4.870;2023-11-18T00:44:32;9.77;;;4.70;;
69244;SDS011;56357;52.304;4.870;2023-11-18T00:46:59;9.43;;;5.03;;
69244;SDS011;56357;52.304;4.870;2023-11-18T00:49:25;9.98;;;4.80;;
69244;SDS011;56357;52.304;4.870;2023-11-18T00:51:52;9.77;;;4.30;;
69244;SDS011;56357;52.304;4.870;2023-11-18T00:54:18;11.00;;;5.43;;
69244;SDS011;56357;52.304;4.870;2023-11-18T00:56:45;10.77;;;4.70;;
69244;SDS011;56357;52.304;4.870;2023-11-18T00:59:11;11.70;;;5.38;;
69244;SDS011;56357;52.304;4.870;2023-11-18T01:01:37;10.77;;;5.25;;
69244;SDS011;56357;52.304;4.870;2023-11-18T01:04:04;11.17;;;4.87;;
69244;SDS011;56357;52.304;4.870;2023-11-18T01:06:30;11.07;;;4.90;;
69244;SDS011;56357;52.304;4.870;2023-11-18T01:08:57;9.48;;;4.45;;
69244;SDS011;56357;52.304;4.870;2023-11-18T01:11:23;10.75;;;3.92;;
69244;SDS011;56357;52.304;4.870;2023-11-18T01:13:50;8.95;;;3.97;;
69244;SDS011;56357;52.304;4.870;2023-11-18T01:16:16;9.33;;;4.33;;
69244;SDS011;56357;52.304;4.870;2023-11-18T01:18:44;9.75;;;4.90;;
69244;SDS011;56357;52.304;4.870;2023-11-18T01:21:11;9.95;;;4.93;;
69244;SDS011;56357;52.304;4.870;2023-11-18T01:23:37;10.57;;;4.95;;
69244;SDS011;56357;52.304;4.870;2023-11-18T01:26:10;9.33;;;4.90;;
69244;SDS011;56357;52.304;4.870;2023-11-18T01:28:37;8.98;;;4.30;;
69244;SDS011;56357;52.304;4.870;2023-11-18T01:31:07;9.35;;;4.57;;
69244;SDS011;56357;52.304;4.870;2023-11-18T01:33:38;7.95;;;3.92;;
69244;SDS011;56357;52.304;4.870;2023-11-18T01:36:06;9.30;;;4.40;;
69244;SDS011;56357;52.304;4.870;2023-11-18T01:38:37;8.80;;;4.30;;
69244;SDS011;56357;52.304;4.870;2023-11-18T01:41:07;10.60;;;4.30;;
69244;SDS011;56357;52.304;4.870;2023-11-18T01:43:34;10.00;;;3.88;;
69244;SDS011;56357;52.304;4.870;2023-11-18T01:46:05;9.30;;;4.20;;
69244;SDS011;56357;52.304;4.870;2023-11-18T01:48:35;8.80;;;4.78;;
69244;SDS011;56357;52.304;4.870;2023-11-18T01:51:03;7.43;;;3.90;;
69244;SDS011;56357;52.304;4.870;2023-11-18T01:53:32;10.32;;;4.65;;
69244;SDS011;56357;52.304;4.870;2023-11-18T01:56:00;9.20;;;4.32;;
69244;SDS011;56357;52.304;4.870;2023-11-18T01:58:27;8.50;;;4.10;;
69244;SDS011;56357;52.304;4.870;2023-11-18T02:00:56;8.75;;;4.30;;
69244;SDS011;56357;52.304;4.870;2023-11-18T02:03:23;10.03;;;4.90;;
69244;SDS011;56357;52.304;4.870;2023-11-18T02:05:52;9.30;;;4.22;;
69244;SDS011;56357;52.304;4.870;2023-11-18T02:08:19;9.52;;;4.10;;
69244;SDS011;56357;52.304;4.870;2023-11-18T02:10:47;7.95;;;4.07;;
69244;SDS011;56357;52.304;4.870;2023-11-18T02:15:57;9.57;;;4.47;;
69244;SDS011;56357;52.304;4.870;2023-11-18T02:18:25;9.32;;;4.00;;
69244;SDS011;56357;52.304;4.870;2023-11-18T02:20:55;10.40;;;4.55;;
69244;SDS011;56357;52.304;4.870;2023-11-18T02:23:26;8.80;;;4.45;;
69244;SDS011;56357;52.304;4.870;2023-11-18T02:25:52;8.60;;;4.07;;
69244;SDS011;56357;52.304;4.870;2023-11-18T02:28:20;8.93;;;4.20;;
69244;SDS011;56357;52.304;4.870;2023-11-18T02:30:47;9.38;;;4.20;;
69244;SDS011;56357;52.304;4.870;2023-11-18T02:33:27;9.15;;;4.30;;
69244;SDS011;56357;52.304;4.870;2023-11-18T02:36:14;8.05;;;4.10;;
69244;SDS011;56357;52.304;4.870;2023-11-18T02:38:49;11.13;;;4.40;;
69244;SDS011;56357;52.304;4.870;2023-11-18T02:41:20;9.27;;;4.23;;
69244;SDS011;56357;52.304;4.870;2023-11-18T02:43:47;7.20;;;3.92;;
69244;SDS011;56357;52.304;4.870;2023-11-18T02:46:13;8.75;;;4.43;;
69244;SDS011;56357;52.304;4.870;2023-11-18T02:48:41;9.43;;;4.10;;
69244;SDS011;56357;52.304;4.870;2023-11-18T02:51:07;8.30;;;3.97;;
69244;SDS011;56357;52.304;4.870;2023-11-18T02:53:34;8.60;;;4.20;;
69244;SDS011;56357;52.304;4.870;2023-11-18T02:56:01;8.70;;;4.10;;
69244;SDS011;56357;52.304;4.870;2023-11-18T02:58:29;9.18;;;4.10;;
69244;SDS011;56357;52.304;4.870;2023-11-18T03:00:56;8.90;;;4.53;;
69244;SDS011;56357;52.304;4.870;2023-11-18T03:03:24;10.98;;;4.60;;
69244;SDS011;56357;52.304;4.870;2023-11-18T03:05:50;8.70;;;4.30;;
69244;SDS011;56357;52.304;4.870;2023-11-18T03:08:17;10.15;;;4.70;;
69244;SDS011;56357;52.304;4.870;2023-11-18T03:10:43;9.02;;;3.90;;
69244;SDS011;56357;52.304;4.870;2023-11-18T03:13:10;7.85;;;4.47;;
69244;SDS011;56357;52.304;4.870;2023-11-18T03:15:37;9.27;;;4.32;;
69244;SDS011;56357;52.304;4.870;2023-11-18T03:18:03;9.63;;;4.17;;
69244;SDS011;56357;52.304;4.870;2023-11-18T03:20:31;7.93;;;4.40;;
69244;SDS011;56357;52.304;4.870;2023-11-18T03:22:59;8.65;;;4.13;;
69244;SDS011;56357;52.304;4.870;2023-11-18T03:25:26;9.48;;;4.38;;
69244;SDS011;56357;52.304;4.870;2023-11-18T03:27:53;8.75;;;4.38;;
69244;SDS011;56357;52.304;4.870;2023-11-18T03:30:19;8.33;;;4.10;;
69244;SDS011;56357;52.304;4.870;2023-11-18T03:32:46;9.93;;;3.97;;
69244;SDS011;56357;52.304;4.870;2023-11-18T03:35:13;11.13;;;3.90;;
69244;SDS011;56357;52.304;4.870;2023-11-18T03:37:39;7.97;;;3.83;;
69244;SDS011;56357;52.304;4.870;2023-11-18T03:40:07;8.90;;;4.07;;
69244;SDS011;56357;52.304;4.870;2023-11-18T03:42:34;7.70;;;3.53;;
69244;SDS011;56357;52.304;4.870;2023-11-18T03:45:02;7.35;;;3.67;;
69244;SDS011;56357;52.304;4.870;2023-11-18T03:47:28;7.55;;;3.58;;
69244;SDS011;56357;52.304;4.870;2023-11-18T03:49:55;9.68;;;3.65;;
69244;SDS011;56357;52.304;4.870;2023-11-18T03:52:22;7.55;;;3.42;;
69244;SDS011;56357;52.304;4.870;2023-11-18T03:54:49;8.03;;;3.83;;
69244;SDS011;56357;52.304;4.870;2023-11-18T03:57:15;8.88;;;4.28;;
69244;SDS011;56357;52.304;4.870;2023-11-18T03:59:42;8.23;;;4.13;;
69244;SDS011;56357;52.304;4.870;2023-11-18T04:02:08;7.63;;;4.18;;
69244;SDS011;56357;52.304;4.870;2023-11-18T04:04:36;10.57;;;3.75;;
69244;SDS011;56357;52.304;4.870;2023-11-18T04:07:02;9.10;;;4.10;;
69244;SDS011;56357;52.304;4.870;2023-11-18T04:09:28;9.63;;;3.92;;
69244;SDS011;56357;52.304;4.870;2023-11-18T04:11:55;9.23;;;4.28;;
69244;SDS011;56357;52.304;4.870;2023-11-18T04:14:21;8.40;;;3.70;;
69244;SDS011;56357;52.304;4.870;2023-11-18T04:16:48;7.30;;;3.90;;
69244;SDS011;56357;52.304;4.870;2023-11-18T04:19:14;9.60;;;4.20;;
69244;SDS011;56357;52.304;4.870;2023-11-18T04:21:41;9.95;;;4.22;;
69244;SDS011;56357;52.304;4.870;2023-11-18T04:24:08;8.80;;;3.92;;
69244;SDS011;56357;52.304;4.870;2023-11-18T04:26:35;7.78;;;4.00;;
69244;SDS011;56357;52.304;4.870;2023-11-18T04:29:01;8.48;;;4.22;;
69244;SDS011;56357;52.304;4.870;2023-11-18T04:31:29;10.47;;;4.77;;
69244;SDS011;56357;52.304;4.870;2023-11-18T04:33:55;8.55;;;4.07;;
69244;SDS011;56357;52.304;4.870;2023-11-18T04:36:22;9.00;;;4.25;;
69244;SDS011;56357;52.304;4.870;2023-11-18T04:38:48;7.78;;;4.03;;
69244;SDS011;56357;52.304;4.870;2023-11-18T04:41:15;8.55;;;2.65;;
69244;SDS011;56357;52.304;4.870;2023-11-18T04:43:41;9.10;;;4.27;;
69244;SDS011;56357;52.304;4.870;2023-11-18T04:46:07;10.30;;;4.00;;
69244;SDS011;56357;52.304;4.870;2023-11-18T04:48:34;8.23;;;3.85;;
69244;SDS011;56357;52.304;4.870;2023-11-18T04:51:01;14.90;;;4.70;;
69244;SDS011;56357;52.304;4.870;2023-11-18T04:53:27;9.05;;;4.13;;
69244;SDS011;56357;52.304;4.870;2023-11-18T04:55:53;9.83;;;4.13;;
69244;SDS011;56357;52.304;4.870;2023-11-18T04:58:20;9.63;;;4.30;;
69244;SDS011;56357;52.304;4.870;2023-11-18T05:00:47;8.50;;;4.10;;
69244;SDS011;56357;52.304;4.870;2023-11-18T05:03:13;8.23;;;3.70;;
69244;SDS011;56357;52.304;4.870;2023-11-18T05:05:40;10.55;;;4.32;;
69244;SDS011;56357;52.304;4.870;2023-11-18T05:08:06;8.50;;;4.00;;
69244;SDS011;56357;52.304;4.870;2023-11-18T05:10:34;7.88;;;3.75;;
69244;SDS011;56357;52.304;4.870;2023-11-18T05:13:02;9.63;;;3.83;;
69244;SDS011;56357;52.304;4.870;2023-11-18T05:15:28;11.57;;;4.70;;
69244;SDS011;56357;52.304;4.870;2023-11-18T05:17:56;9.57;;;4.00;;
69244;SDS011;56357;52.304;4.870;2023-11-18T05:20:23;10.07;;;4.30;;
69244;SDS011;56357;52.304;4.870;2023-11-18T05:22:49;9.35;;;4.05;;
69244;SDS011;56357;52.304;4.870;2023-11-18T05:25:16;10.20;;;4.47;;
69244;SDS011;56357;52.304;4.870;2023-11-18T05:27:43;9.38;;;4.60;;
69244;SDS011;56357;52.304;4.870;2023-11-18T05:30:10;8.52;;;4.45;;
69244;SDS011;56357;52.304;4.870;2023-11-18T05:32:37;8.27;;;4.03;;
69244;SDS011;56357;52.304;4.870;2023-11-18T05:35:05;9.27;;;4.50;;
69244;SDS011;56357;52.304;4.870;2023-11-18T05:37:32;10.27;;;4.15;;
69244;SDS011;56357;52.304;4.870;2023-11-18T05:40:03;14.88;;;4.53;;
69244;SDS011;56357;52.304;4.870;2023-11-18T05:42:35;10.75;;;4.57;;
69244;SDS011;56357;52.304;4.870;2023-11-18T05:45:05;11.40;;;4.20;;
69244;SDS011;56357;52.304;4.870;2023-11-18T05:47:34;8.57;;;4.00;;
69244;SDS011;56357;52.304;4.870;2023-11-18T05:50:01;9.07;;;4.22;;
69244;SDS011;56357;52.304;4.870;2023-11-18T05:52:30;9.32;;;4.18;;
69244;SDS011;56357;52.304;4.870;2023-11-18T05:54:57;8.85;;;3.50;;
69244;SDS011;56357;52.304;4.870;2023-11-18T05:57:24;12.57;;;4.10;;
69244;SDS011;56357;52.304;4.870;2023-11-18T05:59:52;9.90;;;4.18;;
69244;SDS011;56357;52.304;4.870;2023-11-18T06:02:19;13.07;;;4.82;;
69244;SDS011;56357;52.304;4.870;2023-11-18T06:04:46;10.20;;;4.30;;
69244;SDS011;56357;52.304;4.870;2023-11-18T06:07:14;6.75;;;3.00;;
69244;SDS011;56357;52.304;4.870;2023-11-18T06:09:40;8.00;;;2.90;;
69244;SDS011;56357;52.304;4.870;2023-11-18T06:12:08;9.15;;;4.30;;
69244;SDS011;56357;52.304;4.870;2023-11-18T06:14:35;8.70;;;3.97;;
69244;SDS011;56357;52.304;4.870;2023-11-18T06:17:06;10.38;;;4.60;;
69244;SDS011;56357;52.304;4.870;2023-11-18T06:19:33;14.13;;;4.80;;
69244;SDS011;56357;52.304;4.870;2023-11-18T06:22:00;12.27;;;4.23;;
69244;SDS011;56357;52.304;4.870;2023-11-18T06:24:26;10.20;;;4.53;;
69244;SDS011;56357;52.304;4.870;2023-11-18T06:26:53;10.77;;;4.57;;
69244;SDS011;56357;52.304;4.870;2023-11-18T06:29:19;9.88;;;4.00;;
69244;SDS011;56357;52.304;4.870;2023-11-18T06:31:46;8.57;;;4.05;;
69244;SDS011;56357;52.304;4.870;2023-11-18T06:34:13;10.13;;;3.90;;
69244;SDS011;56357;52.304;4.870;2023-11-18T06:36:39;15.27;;;4.00;;
69244;SDS011;56357;52.304;4.870;2023-11-18T06:39:06;9.73;;;3.97;;
69244;SDS011;56357;52.304;4.870;2023-11-18T06:41:33;12.23;;;4.18;;
69244;SDS011;56357;52.304;4.870;2023-11-18T06:44:01;8.32;;;3.97;;
69244;SDS011;56357;52.304;4.870;2023-11-18T06:46:34;14.87;;;5.90;;
69244;SDS011;56357;52.304;4.870;2023-11-18T06:49:04;10.80;;;4.03;;
69244;SDS011;56357;52.304;4.870;2023-11-18T06:51:32;10.23;;;3.38;;
69244;SDS011;56357;52.304;4.870;2023-11-18T06:54:02;10.55;;;3.97;;
69244;SDS011;56357;52.304;4.870;2023-11-18T06:56:34;9.02;;;3.63;;
69244;SDS011;56357;52.304;4.870;2023-11-18T06:59:02;10.37;;;3.63;;
69244;SDS011;56357;52.304;4.870;2023-11-18T07:01:29;10.25;;;3.80;;
69244;SDS011;56357;52.304;4.870;2023-11-18T07:03:56;12.25;;;4.28;;
69244;SDS011;56357;52.304;4.870;2023-11-18T07:06:22;10.40;;;3.95;;
69244;SDS011;56357;52.304;4.870;2023-11-18T07:08:51;12.07;;;4.28;;
69244;SDS011;56357;52.304;4.870;2023-11-18T07:11:19;12.03;;;4.10;;
69244;SDS011;56357;52.304;4.870;2023-11-18T07:13:46;19.15;;;4.45;;
69244;SDS011;56357;52.304;4.870;2023-11-18T07:16:14;11.45;;;4.05;;
69244;SDS011;56357;52.304;4.870;2023-11-18T07:18:40;14.40;;;3.97;;
69244;SDS011;56357;52.304;4.870;2023-11-18T07:21:08;18.30;;;4.95;;
69244;SDS011;56357;52.304;4.870;2023-11-18T07:23:34;15.13;;;4.27;;
69244;SDS011;56357;52.304;4.870;2023-11-18T07:26:01;15.13;;;3.92;;
69244;SDS011;56357;52.304;4.870;2023-11-18T07:28:28;12.25;;;4.22;;
69244;SDS011;56357;52.304;4.870;2023-11-18T07:30:56;18.45;;;4.63;;
69244;SDS011;56357;52.304;4.870;2023-11-18T07:33:23;13.57;;;4.07;;
69244;SDS011;56357;52.304;4.870;2023-11-18T07:35:49;23.50;;;4.00;;
69244;SDS011;56357;52.304;4.870;2023-11-18T07:38:17;19.30;;;4.30;;
69244;SDS011;56357;52.304;4.870;2023-11-18T07:40:45;19.20;;;4.30;;
69244;SDS011;56357;52.304;4.870;2023-11-18T07:43:12;15.52;;;3.80;;
69244;SDS011;56357;52.304;4.870;2023-11-18T07:45:40;17.13;;;3.80;;
69244;SDS011;56357;52.304;4.870;2023-11-18T07:48:07;22.67;;;4.93;;
69244;SDS011;56357;52.304;4.870;2023-11-18T07:50:37;16.20;;;4.70;;
69244;SDS011;56357;52.304;4.870;2023-11-18T07:53:05;14.23;;;4.03;;
69244;SDS011;56357;52.304;4.870;2023-11-18T07:55:32;18.83;;;4.90;;
69244;SDS011;56357;52.304;4.870;2023-11-18T07:58:02;16.25;;;3.58;;
69244;SDS011;56357;52.304;4.870;2023-11-18T08:00:29;23.17;;;4.50;;
69244;SDS011;56357;52.304;4.870;2023-11-18T08:02:56;29.73;;;4.95;;
69244;SDS011;56357;52.304;4.870;2023-11-18T08:05:25;16.90;;;4.43;;
69244;SDS011;56357;52.304;4.870;2023-11-18T08:07:53;22.50;;;5.35;;
69244;SDS011;56357;52.304;4.870;2023-11-18T08:10:19;16.75;;;3.70;;
69244;SDS011;56357;52.304;4.870;2023-11-18T08:12:46;18.30;;;4.57;;
69244;SDS011;56357;52.304;4.870;2023-11-18T08:15:13;18.58;;;3.85;;
69244;SDS011;56357;52.304;4.870;2023-11-18T08:17:39;22.60;;;4.65;;
69244;SDS011;56357;52.304;4.870;2023-11-18T08:20:06;24.83;;;4.40;;
69244;SDS011;56357;52.304;4.870;2023-11-18T08:22:39;16.75;;;4.60;;
69244;SDS011;56357;52.304;4.870;2023-11-18T08:25:08;16.63;;;4.57;;
69244;SDS011;56357;52.304;4.870;2023-11-18T08:27:37;20.00;;;3.47;;
69244;SDS011;56357;52.304;4.870;2023-11-18T08:30:04;15.70;;;3.78;;
69244;SDS011;56357;52.304;4.870;2023-11-18T08:32:36;14.52;;;4.38;;
69244;SDS011;56357;52.304;4.870;2023-11-18T08:35:05;14.60;;;3.60;;
69244;SDS011;56357;52.304;4.870;2023-11-18T08:37:33;13.03;;;4.17;;
69244;SDS011;56357;52.304;4.870;2023-11-18T08:40:04;21.00;;;4.40;;
69244;SDS011;56357;52.304;4.870;2023-11-18T08:42:39;15.68;;;3.85;;
69244;SDS011;56357;52.304;4.870;2023-11-18T08:45:13;16.63;;;3.65;;
69244;SDS011;56357;52.304;4.870;2023-11-18T08:47:44;11.65;;;3.67;;
69244;SDS011;56357;52.304;4.870;2023-11-18T08:50:12;15.83;;;3.60;;
69244;SDS011;56357;52.304;4.870;2023-11-18T08:52:41;10.88;;;3.88;;
69244;SDS011;56357;52.304;4.870;2023-11-18T08:55:12;11.68;;;2.97;;
69244;SDS011;56357;52.304;4.870;2023-11-18T08:57:42;10.77;;;3.65;;
69244;SDS011;56357;52.304;4.870;2023-11-18T09:00:17;10.60;;;2.63;;
69244;SDS011;56357;52.304;4.870;2023-11-18T09:03:07;17.33;;;4.07;;
69244;SDS011;56357;52.304;4.870;2023-11-18T09:05:33;11.57;;;2.90;;
69244;SDS011;56357;52.304;4.870;2023-11-18T09:08:01;13.63;;;3.45;;
69244;SDS011;56357;52.304;4.870;2023-11-18T09:10:31;10.30;;;3.38;;
69244;SDS011;56357;52.304;4.870;2023-11-18T09:12:57;8.90;;;2.90;;
69244;SDS011;56357;52.304;4.870;2023-11-18T09:15:24;13.80;;;3.40;;
69244;SDS011;56357;52.304;4.870;2023-11-18T09:17:51;9.90;;;3.30;;
69244;SDS011;56357;52.304;4.870;2023-11-18T09:20:18;8.98;;;3.00;;
69244;SDS011;56357;52.304;4.870;2023-11-18T09:22:47;8.77;;;3.20;;
69244;SDS011;56357;52.304;4.870;2023-11-18T09:25:14;9.93;;;2.53;;
69244;SDS011;56357;52.304;4.870;2023-11-18T09:27:42;7.80;;;2.93;;
69244;SDS011;56357;52.304;4.870;2023-11-18T09:30:10;12.07;;;3.38;;
69244;SDS011;56357;52.304;4.870;2023-11-18T09:32:41;10.18;;;2.60;;
69244;SDS011;56357;52.304;4.870;2023-11-18T09:35:08;7.93;;;2.78;;
69244;SDS011;56357;52.304;4.870;2023-11-18T09:37:37;7.80;;;2.72;;
69244;SDS011;56357;52.304;4.870;2023-11-18T09:40:05;10.30;;;2.20;;
69244;SDS011;56357;52.304;4.870;2023-11-18T09:42:37;10.45;;;2.97;;
69244;SDS011;56357;52.304;4.870;2023-11-18T09:45:05;11.10;;;3.00;;
69244;SDS011;56357;52.304;4.870;2023-11-18T09:47:38;8.20;;;2.67;;
69244;SDS011;56357;52.304;4.870;2023-11-18T09:50:12;12.70;;;2.85;;
69244;SDS011;56357;52.304;4.870;2023-11-18T09:52:42;9.77;;;2.70;;
69244;SDS011;56357;52.304;4.870;2023-11-18T09:55:29;10.23;;;3.38;;
69244;SDS011;56357;52.304;4.870;2023-11-18T09:58:06;9.35;;;2.80;;
69244;SDS011;56357;52.304;4.870;2023-11-18T10:00:39;11.48;;;3.03;;
69244;SDS011;56357;52.304;4.870;2023-11-18T10:03:07;13.20;;;2.83;;
69244;SDS011;56357;52.304;4.870;2023-11-18T10:05:37;12.33;;;2.33;;
69244;SDS011;56357;52.304;4.870;2023-11-18T10:08:07;13.02;;;3.00;;
69244;SDS011;56357;52.304;4.870;2023-11-18T10:10:34;11.32;;;3.38;;
69244;SDS011;56357;52.304;4.870;2023-11-18T10:13:02;10.10;;;2.78;;
69244;SDS011;56357;52.304;4.870;2023-11-18T10:15:34;9.82;;;2.55;;
69244;SDS011;56357;52.304;4.870;2023-11-18T10:18:00;15.30;;;2.90;;
69244;SDS011;56357;52.304;4.870;2023-11-18T10:23:07;14.48;;;2.40;;
69244;SDS011;56357;52.304;4.870;2023-11-18T10:25:45;10.18;;;2.72;;
69244;SDS011;56357;52.304;4.870;2023-11-18T10:30:52;12.07;;;2.80;;
69244;SDS011;56357;52.304;4.870;2023-11-18T10:33:22;11.00;;;2.33;;
69244;SDS011;56357;52.304;4.870;2023-11-18T10:35:55;10.40;;;2.42;;
69244;SDS011;56357;52.304;4.870;2023-11-18T10:38:22;10.30;;;2.97;;
69244;SDS011;56357;52.304;4.870;2023-11-18T10:40:54;9.65;;;2.58;;
69244;SDS011;56357;52.304;4.870;2023-11-18T10:43:22;8.03;;;2.50;;
69244;SDS011;56357;52.304;4.870;2023-11-18T10:45:51;15.10;;;2.58;;
69244;SDS011;56357;52.304;4.870;2023-11-18T10:48:18;7.68;;;2.10;;
69244;SDS011;56357;52.304;4.870;2023-11-18T10:50:49;10.05;;;3.05;;
69244;SDS011;56357;52.304;4.870;2023-11-18T10:53:18;11.82;;;2.75;;
69244;SDS011;56357;52.304;4.870;2023-11-18T10:55:46;9.43;;;2.23;;
69244;SDS011;56357;52.304;4.870;2023-11-18T10:58:12;11.20;;;2.53;;
69244;SDS011;56357;52.304;4.870;2023-11-18T11:00:47;8.90;;;1.92;;
69244;SDS011;56357;52.304;4.870;2023-11-18T11:03:15;13.15;;;2.50;;
69244;SDS011;56357;52.304;4.870;2023-11-18T11:05:43;9.88;;;2.53;;
69244;SDS011;56357;52.304;4.870;2023-11-18T11:08:11;10.60;;;2.03;;
69244;SDS011;56357;52.304;4.870;2023-11-18T11:10:41;7.10;;;2.33;;
69244;SDS011;56357;52.304;4.870;2023-11-18T11:13:08;11.38;;;2.53;;
69244;SDS011;56357;52.304;4.870;2023-11-18T11:15:42;11.18;;;2.70;;
69244;SDS011;56357;52.304;4.870;2023-11-18T11:18:11;6.35;;;2.05;;
69244;SDS011;56357;52.304;4.870;2023-11-18T11:20:57;6.67;;;1.93;;
69244;SDS011;56357;52.304;4.870;2023-11-18T11:23:49;9.20;;;2.25;;
69244;SDS011;56357;52.304;4.870;2023-11-18T11:26:26;8.10;;;2.28;;
69244;SDS011;56357;52.304;4.870;2023-11-18T11:29:02;11.55;;;2.38;;
69244;SDS011;56357;52.304;4.870;2023-11-18T11:31:35;10.27;;;2.30;;
69244;SDS011;56357;52.304;4.870;2023-11-18T11:36:47;9.95;;;2.15;;
69244;SDS011;56357;52.304;4.870;2023-11-18T11:39:15;9.45;;;1.90;;
69244;SDS011;56357;52.304;4.870;2023-11-18T11:41:51;7.82;;;2.08;;
69244;SDS011;56357;52.304;4.870;2023-11-18T11:44:19;10.32;;;2.00;;
69244;SDS011;56357;52.304;4.870;2023-11-18T11:46:47;6.10;;;1.50;;
69244;SDS011;56357;52.304;4.870;2023-11-18T11:49:18;9.27;;;1.52;;
69244;SDS011;56357;52.304;4.870;2023-11-18T11:51:47;5.18;;;1.55;;
69244;SDS011;56357;52.304;4.870;2023-11-18T11:57:01;8.48;;;1.65;;
69244;SDS011;56357;52.304;4.870;2023-11-18T12:02:14;11.65;;;2.03;;
69244;SDS011;56357;52.304;4.870;2023-11-18T12:04:45;9.48;;;2.05;;
69244;SDS011;56357;52.304;4.870;2023-11-18T12:07:12;9.20;;;1.73;;
69244;SDS011;56357;52.304;4.870;2023-11-18T12:09:41;7.85;;;1.50;;
69244;SDS011;56357;52.304;4.870;2023-11-18T12:12:27;7.67;;;1.53;;
69244;SDS011;56357;52.304;4.870;2023-11-18T12:14:56;6.57;;;1.70;;
69244;SDS011;56357;52.304;4.870;2023-11-18T12:17:40;6.65;;;1.50;;
69244;SDS011;56357;52.304;4.870;2023-11-18T12:20:38;6.57;;;1.80;;
69244;SDS011;56357;52.304;4.870;2023-11-18T12:23:12;6.45;;;1.70;;
69244;SDS011;56357;52.304;4.870;2023-11-18T12:25:40;7.97;;;1.40;;
69244;SDS011;56357;52.304;4.870;2023-11-18T12:28:08;5.97;;;1.30;;
69244;SDS011;56357;52.304;4.870;2023-11-18T12:33:04;5.88;;;1.45;;
69244;SDS011;56357;52.304;4.870;2023-11-18T12:41:38;5.57;;;1.10;;
69244;SDS011;56357;52.304;4.870;2023-11-18T12:44:14;5.70;;;1.23;;
69244;SDS011;56357;52.304;4.870;2023-11-18T12:47:00;6.00;;;1.50;;
69244;SDS011;56357;52.304;4.870;2023-11-18T12:49:37;6.55;;;1.17;;
69244;SDS011;56357;52.304;4.870;2023-11-18T12:52:06;7.50;;;1.60;;
69244;SDS011;56357;52.304;4.870;2023-11-18T12:54:34;6.05;;;1.33;;
69244;SDS011;56357;52.304;4.870;2023-11-18T12:57:02;5.95;;;1.70;;
69244;SDS011;56357;52.304;4.870;2023-11-18T12:59:32;6.28;;;1.20;;
69244;SDS011;56357;52.304;4.870;2023-11-18T13:02:02;6.18;;;1.17;;
69244;SDS011;56357;52.304;4.870;2023-11-18T13:04:44;5.77;;;1.20;;
69244;SDS011;56357;52.304;4.870;2023-11-18T13:07:16;5.10;;;1.10;;
69244;SDS011;56357;52.304;4.870;2023-11-18T13:09:43;6.65;;;0.93;;
69244;SDS011;56357;52.304;4.870;2023-11-18T13:12:11;7.22;;;1.27;;
69244;SDS011;56357;52.304;4.870;2023-11-18T13:14:40;4.22;;;0.98;;
69244;SDS011;56357;52.304;4.870;2023-11-18T13:17:11;5.57;;;1.00;;
69244;SDS011;56357;52.304;4.870;2023-11-18T13:19:40;7.45;;;0.90;;
69244;SDS011;56357;52.304;4.870;2023-11-18T13:22:08;6.03;;;1.17;;
69244;SDS011;56357;52.304;4.870;2023-11-18T13:24:37;5.38;;;1.20;;
69244;SDS011;56357;52.304;4.870;2023-11-18T13:27:10;6.57;;;1.50;;
69244;SDS011;56357;52.304;4.870;2023-11-18T13:29:43;4.70;;;0.97;;
69244;SDS011;56357;52.304;4.870;2023-11-18T13:32:13;5.63;;;1.40;;
69244;SDS011;56357;52.304;4.870;2023-11-18T13:34:41;5.20;;;0.90;;
69244;SDS011;56357;52.304;4.870;2023-11-18T13:37:08;5.22;;;0.95;;
69244;SDS011;56357;52.304;4.870;2023-11-18T13:39:35;4.72;;;1.20;;
69244;SDS011;56357;52.304;4.870;2023-11-18T13:44:49;4.70;;;0.90;;
69244;SDS011;56357;52.304;4.870;2023-11-18T13:47:17;3.45;;;0.80;;
69244;SDS011;56357;52.304;4.870;2023-11-18T13:49:44;3.25;;;0.73;;
69244;SDS011;56357;52.304;4.870;2023-11-18T13:52:12;3.85;;;0.82;;
69244;SDS011;56357;52.304;4.870;2023-11-18T13:54:41;4.73;;;1.17;;
69244;SDS011;56357;52.304;4.870;2023-11-18T13:57:10;4.15;;;1.15;;
69244;SDS011;56357;52.304;4.870;2023-11-18T13:59:37;4.38;;;0.90;;
69244;SDS011;56357;52.304;4.870;2023-11-18T14:02:04;4.43;;;0.93;;
69244;SDS011;56357;52.304;4.870;2023-11-18T14:04:33;3.50;;;0.85;;
69244;SDS011;56357;52.304;4.870;2023-11-18T14:07:00;4.70;;;0.83;;
69244;SDS011;56357;52.304;4.870;2023-11-18T14:09:30;4.88;;;0.90;;
69244;SDS011;56357;52.304;4.870;2023-11-18T14:12:01;3.40;;;0.70;;
69244;SDS011;56357;52.304;4.870;2023-11-18T14:14:31;3.50;;;0.75;;
69244;SDS011;56357;52.304;4.870;2023-11-18T14:16:58;3.75;;;0.93;;
69244;SDS011;56357;52.304;4.870;2023-11-18T14:19:27;3.80;;;0.63;;
69244;SDS011;56357;52.304;4.870;2023-11-18T14:21:54;4.63;;;0.68;;
69244;SDS011;56357;52.304;4.870;2023-11-18T14:24:21;3.72;;;0.77;;
69244;SDS011;56357;52.304;4.870;2023-11-18T14:26:52;4.90;;;0.70;;
69244;SDS011;56357;52.304;4.870;2023-11-18T14:29:19;4.30;;;0.90;;
69244;SDS011;56357;52.304;4.870;2023-11-18T14:31:45;3.93;;;0.63;;
69244;SDS011;56357;52.304;4.870;2023-11-18T14:34:12;3.60;;;0.75;;
69244;SDS011;56357;52.304;4.870;2023-11-18T14:36:38;5.07;;;0.60;;
69244;SDS011;56357;52.304;4.870;2023-11-18T14:39:05;3.97;;;0.95;;
69244;SDS011;56357;52.304;4.870;2023-11-18T14:41:34;3.35;;;0.57;;
69244;SDS011;56357;52.304;4.870;2023-11-18T14:44:02;3.60;;;0.80;;
69244;SDS011;56357;52.304;4.870;2023-11-18T14:46:30;3.75;;;1.00;;
69244;SDS011;56357;52.304;4.870;2023-11-18T14:48:57;4.85;;;0.60;;
69244;SDS011;56357;52.304;4.870;2023-11-18T14:51:24;4.88;;;0.90;;
69244;SDS011;56357;52.304;4.870;2023-11-18T14:53:50;3.65;;;0.80;;
69244;SDS011;56357;52.304;4.870;2023-11-18T14:56:18;3.37;;;0.77;;
69244;SDS011;56357;52.304;4.870;2023-11-18T14:58:45;3.47;;;0.60;;
69244;SDS011;56357;52.304;4.870;2023-11-18T15:01:14;3.65;;;0.60;;
69244;SDS011;56357;52.304;4.870;2023-11-18T15:03:40;2.97;;;0.60;;
69244;SDS011;56357;52.304;4.870;2023-11-18T15:06:07;2.95;;;0.50;;
69244;SDS011;56357;52.304;4.870;2023-11-18T15:08:36;4.03;;;0.60;;
69244;SDS011;56357;52.304;4.870;2023-11-18T15:11:04;4.10;;;0.52;;
69244;SDS011;56357;52.304;4.870;2023-11-18T15:13:32;3.05;;;0.70;;
69244;SDS011;56357;52.304;4.870;2023-11-18T15:15:58;8.13;;;1.70;;
69244;SDS011;56357;52.304;4.870;2023-11-18T15:18:25;4.25;;;0.85;;